Date,TemperatureHighF,TemperatureAvgF,TemperatureLowF,DewpointHighF,DewpointAvgF,DewpointLowF,HumidityHigh,HumidityAvg,HumidityLow,PressureMaxIn,PressureMinIn,WindSpeedMaxMPH,WindSpeedAvgMPH,GustSpeedMaxMPH,PrecipitationSumIn
2013-1-1,30,25,18,27,18,13,88,75,64,30.19,30.07,11,4,15,0.00
2013-1-2,23,16,9,17,12,6,90,84,78,30.28,30.16,10,3,12,0.00
2013-1-3,28,21,8,25,16,4,88,81,75,30.28,30.18,17,6,23,0.00
2013-1-4,27,23,17,22,18,13,89,81,73,30.29,30.19,22,9,29,0.00
2013-1-5,32,26,15,31,23,13,96,88,76,30.35,30.11,13,4,17,0.01
2013-1-6,35,32,28,32,29,24,93,87,79,30.34,29.98,19,7,26,0.01
2013-1-7,33,29,24,27,24,21,91,83,73,30.45,30.22,16,5,23,0.00
2013-1-8,36,28,21,30,24,19,94,86,72,30.32,30.22,11,2,15,0.00
2013-1-9,46,38,28,35,30,24,93,74,59,30.52,30.13,20,7,25,0.00
2013-1-10,39,32,24,34,28,21,93,86,73,30.59,30.16,13,3,17,0.12
2013-1-11,58,46,36,53,44,33,99,92,81,30.15,29.83,22,5,24,0.51
2013-1-12,60,51,46,53,48,44,99,91,76,29.97,29.77,16,3,18,0.13
2013-1-13,51,38,28,51,37,25,99,95,88,30.13,29.74,20,7,23,0.58
2013-1-14,28,22,17,24,18,15,93,84,76,30.50,30.13,21,7,25,0.00
2013-1-15,28,22,13,23,18,11,95,86,73,30.49,30.19,8,1,10,0.00
2013-1-16,36,28,21,28,22,19,95,79,54,30.18,29.92,20,6,24,0.00
2013-1-17,38,30,19,29,23,12,92,75,54,30.39,30.05,24,8,27,0.00
2013-1-18,37,28,18,26,20,15,88,73,61,30.49,30.07,21,7,27,0.00
2013-1-19,48,42,36,36,31,26,78,66,57,30.08,29.73,22,11,31,0.00
2013-1-20,42,23,18,35,14,8,77,67,50,30.26,29.72,33,15,46,0.00
2013-1-21,18,14,7,12,6,1,85,71,53,30.22,30.07,30,11,31,0.00
2013-1-22,8,6,4,4,2,0,87,85,82,30.29,30.21,16,9,22,0.00
2013-1-23,17,12,6,14,5,-1,90,73,56,30.38,30.13,12,6,19,0.00
2013-1-24,19,14,6,12,5,2,85,70,48,30.67,30.18,17,5,26,0.00
2013-1-25,22,19,16,20,14,6,90,82,64,30.54,30.07,7,4,15,0.00
2013-1-26,28,22,13,21,16,9,92,80,59,30.50,30.11,10,4,18,0.00
2013-1-27,32,23,13,29,19,10,93,83,68,30.52,30.15,10,4,18,0.00
2013-1-28,48,42,32,48,41,30,99,98,92,30.16,29.94,10,5,21,0.14
2013-1-29,58,53,40,56,52,39,100,95,92,30.02,29.44,22,7,26,0.20
2013-1-30,61,48,30,58,46,26,99,93,84,29.44,29.18,30,10,37,0.48
2013-1-31,30,20,13,26,14,6,94,77,63,30.01,29.41,32,15,35,0.00
2013-2-1,13,10,8,9,6,4,84,82,81,30.20,30.01,20,13,26,0.00
2013-2-6,31,25,12,26,17,10,93,74,57,30.34,30.04,10,3,16,0.07
2013-2-7,37,29,21,31,24,17,95,81,74,30.30,29.84,7,4,14,0.05
2013-2-8,32,28,17,31,24,14,97,86,71,30.39,29.82,14,7,22,0.06
2013-2-9,30,22,11,22,17,9,94,83,68,30.50,30.31,7,2,14,0.00
2013-2-10,44,32,21,43,28,19,96,85,72,30.31,29.72,9,4,17,0.07
2013-2-11,45,37,31,44,31,24,97,80,70,29.97,29.63,22,14,45,0.01
2013-2-12,35,31,29,28,25,23,81,77,71,30.12,29.98,17,9,26,0.00
2013-2-14,41,36,32,36,31,25,94,83,70,29.95,29.74,26,10,35,0.00
2013-2-15,33,28,19,25,20,14,85,73,61,30.19,29.94,21,8,26,0.00
2013-2-16,25,22,20,20,18,15,92,84,68,30.17,30.06,21,5,24,0.00
2013-2-18,52,35,19,41,27,14,87,71,60,30.25,29.64,11,7,27,0.07
2013-2-19,44,25,15,42,21,10,95,84,72,30.07,29.50,21,16,44,0.12
2013-2-20,22,19,16,17,14,11,89,82,76,30.35,30.07,17,12,27,0.00
2013-2-21,26,22,20,20,17,15,83,80,76,30.43,30.25,11,6,24,0.00
2013-2-22,34,27,21,33,26,16,98,93,82,30.25,29.93,11,6,21,0.00
2013-2-23,32,28,25,30,22,19,92,79,70,30.00,29.94,13,9,24,0.00
2013-2-24,34,30,25,26,24,20,85,78,71,30.21,29.98,14,6,21,0.04
2013-2-25,39,31,20,29,25,18,96,81,64,30.27,30.08,11,2,14,0.05
2013-2-26,33,31,28,32,29,25,97,90,82,30.09,29.47,18,4,25,0.70
2013-2-27,34,32,31,33,32,30,98,97,96,29.64,29.47,14,5,18,0.34
2013-2-28,36,34,31,33,31,29,98,90,80,29.99,29.61,18,7,20,0.15
2013-3-1,32,28,25,30,23,19,92,82,73,30.16,29.98,18,9,19,0.00
2013-3-2,27,25,22,21,19,17,85,79,72,30.14,30.10,15,7,16,0.00
2013-3-3,30,24,22,18,16,15,81,73,56,30.13,30.05,19,8,21,0.00
2013-3-4,34,26,14,24,19,12,91,74,60,30.21,30.12,6,2,11,0.00
2013-3-5,32,29,27,28,25,21,97,86,75,30.14,29.78,20,6,26,0.00
2013-3-6,34,30,26,28,26,22,96,84,77,30.27,29.83,20,8,25,0.00
2013-3-7,37,33,28,31,27,22,91,79,61,30.44,30.25,15,6,19,0.00
2013-3-8,42,30,22,28,24,19,90,78,54,30.54,30.43,5,1,10,0.00
2013-3-9,45,36,25,37,31,23,94,81,66,30.44,30.04,11,4,15,0.00
2013-3-10,51,42,35,40,36,33,92,81,65,30.04,29.95,12,3,19,0.01
2013-3-27,42,36,31,25,24,22,70,61,49,30.29,30.25,24,9,24,0.00
2013-3-28,50,39,28,29,25,22,80,60,38,30.34,30.26,20,7,23,0.00
2013-3-29,51,39,25,29,24,20,88,58,31,30.34,30.23,18,4,21,0.00
2013-3-30,54,37,24,30,24,19,85,61,37,30.26,30.09,13,3,20,0.00
2013-4-8,54,52,49,46,45,44,82,78,74,29.98,29.93,9,5,14,0.00
2013-4-9,78,58,44,62,50,41,92,75,49,30.07,29.82,24,5,33,0.00
2013-4-10,56,50,48,49,47,46,92,89,78,29.93,29.90,9,5,19,0.03
2013-4-27,68,56,36,43,38,34,94,57,31,30.36,30.09,14,3,19,0.00
2013-4-28,58,54,48,57,51,42,98,90,67,30.08,29.82,8,1,11,0.35
2013-4-29,68,59,53,58,55,53,99,86,63,29.96,29.86,12,3,15,0.00
2013-4-30,75,63,51,61,56,50,97,77,55,30.03,29.93,20,5,24,0.00
2013-5-1,81,68,51,61,56,50,98,69,43,30.18,30.03,13,3,18,0.00
2013-5-2,77,66,54,58,55,51,91,69,44,30.20,30.08,18,4,21,0.00
2013-5-3,77,67,56,60,51,40,90,60,28,30.09,29.96,22,5,26,0.00
2013-5-4,60,56,54,48,45,43,76,65,56,30.05,30.01,5,1,9,0.00
2013-5-5,70,60,51,49,45,41,80,60,38,30.05,29.98,13,3,20,0.00
2013-5-6,72,62,53,51,46,42,73,57,37,30.03,29.93,12,3,14,0.00
2013-5-7,74,62,50,56,50,43,83,65,47,30.03,29.95,16,3,22,0.00
2013-5-8,78,66,54,57,52,46,89,63,34,30.00,29.91,13,4,19,0.00
2013-5-9,80,67,51,58,53,42,95,65,28,29.96,29.88,18,3,28,0.02
2013-5-10,70,61,46,61,56,43,97,86,68,29.89,29.72,21,8,25,0.08
2013-5-11,55,47,40,49,42,34,92,84,66,29.96,29.80,27,8,36,0.03
2013-5-12,48,42,33,34,31,28,87,67,49,30.14,29.96,27,11,32,0.00
2013-5-13,56,43,30,34,28,25,94,60,30,30.21,30.12,18,4,25,0.00
2013-5-14,82,62,42,60,45,32,79,55,38,30.13,29.70,28,5,28,0.00
2013-5-15,83,75,63,62,55,44,70,52,28,29.76,29.62,25,10,31,0.00
2013-5-16,82,69,51,57,47,40,87,51,25,29.94,29.76,10,2,14,0.00
2013-5-17,78,64,52,52,45,39,68,50,35,30.10,29.94,14,4,21,0.00
2013-5-18,79,66,55,60,51,42,76,60,45,30.11,29.98,9,2,11,0.00
2013-5-19,85,70,54,65,58,48,82,65,47,30.00,29.83,11,2,13,0.00
2013-5-20,88,77,65,71,66,63,93,72,48,29.89,29.76,24,4,28,0.00
2013-5-21,85,76,69,67,63,60,90,65,43,29.79,29.67,21,6,28,0.00
2013-5-22,79,69,63,66,63,60,96,81,55,29.72,29.62,23,5,42,0.32
2013-5-23,64,57,47,62,54,45,96,90,84,30.16,29.70,20,8,26,0.04
2013-5-24,60,50,39,45,39,36,95,70,41,30.36,30.16,19,7,25,0.00
2013-5-25,67,53,37,47,41,36,98,66,35,30.40,30.25,11,2,13,0.00
2013-5-26,54,49,45,42,42,40,85,77,61,30.32,30.30,6,1,8,0.00
2013-5-27,55,54,54,54,53,53,98,97,97,29.98,29.95,9,5,13,0.25
2013-5-28,79,68,54,70,64,54,100,86,69,29.96,29.81,21,6,29,0.15
2013-5-29,84,75,66,69,65,62,92,73,55,29.97,29.84,23,6,25,0.03
2013-5-30,86,74,64,71,66,61,98,77,56,30.04,29.91,19,4,31,0.22
2013-5-31,76,71,66,70,68,65,99,89,77,29.96,29.84,18,4,25,0.39
2013-6-1,75,69,62,67,64,62,99,87,70,29.88,29.68,21,4,26,1.45
2013-6-2,70,64,53,66,58,47,92,81,70,29.97,29.67,20,9,22,0.00
2013-6-3,66,56,46,49,44,39,87,64,40,30.09,29.97,14,5,18,0.00
2013-6-4,72,60,45,53,48,44,96,65,41,30.19,30.09,10,2,14,0.00
2013-6-5,74,63,53,54,49,36,85,62,31,30.14,29.94,12,3,18,0.00
2013-6-6,72,62,56,57,51,45,83,67,54,29.95,29.80,13,6,16,0.00
2013-6-7,64,58,51,55,52,49,96,82,69,29.91,29.85,15,4,18,0.00
2013-6-8,75,62,47,60,53,46,99,74,47,30.03,29.90,9,1,12,0.00
2013-6-9,81,70,58,66,60,54,87,72,44,30.06,29.88,12,3,16,0.00
2013-6-10,76,68,66,68,65,64,98,90,71,29.88,29.70,19,4,23,0.13
2013-6-11,82,72,63,69,65,62,95,79,60,29.91,29.77,13,6,18,0.00
2013-6-12,86,74,64,76,69,63,98,85,67,29.88,29.59,24,2,41,0.33
2013-6-13,77,69,63,66,60,53,98,74,46,29.91,29.48,22,9,26,0.22
2013-6-14,77,66,58,60,58,54,94,75,46,30.06,29.91,14,4,15,0.00
2013-6-15,77,66,55,67,60,54,98,85,59,30.09,29.92,14,2,26,0.04
2013-6-16,81,71,64,69,66,62,96,84,61,29.91,29.82,18,8,25,0.22
2013-6-17,71,66,63,69,64,61,98,94,90,29.90,29.87,6,1,10,0.00
2013-6-21,86,82,70,64,60,56,76,48,37,30.17,30.01,12,4,21,0.00
2013-6-22,89,78,68,76,69,61,84,72,59,30.07,29.93,18,4,21,0.00
2013-6-23,88,77,66,72,68,64,96,74,52,30.07,29.94,28,4,32,0.00
2013-6-24,86,76,67,72,68,65,97,78,55,30.05,29.90,19,4,34,0.00
2013-6-25,88,77,67,75,69,62,95,78,53,29.98,29.77,22,7,30,0.44
2013-6-26,82,71,66,76,68,64,98,93,76,29.89,29.69,21,3,33,0.66
2013-6-27,84,74,67,73,69,66,100,88,64,29.75,29.65,15,4,22,0.00
2013-6-28,80,71,62,68,66,58,98,85,61,29.63,29.51,21,6,42,0.82
2013-6-29,76,66,60,66,63,60,100,92,67,29.70,29.53,13,2,20,0.71
2013-6-30,75,66,61,65,62,59,97,85,65,29.90,29.70,12,6,20,0.01
2013-7-1,70,64,60,62,58,53,87,79,68,30.02,29.89,23,10,32,0.01
2013-7-2,71,64,60,66,62,56,98,90,82,30.04,29.98,15,5,18,0.03
2013-7-3,82,71,64,71,66,63,100,87,60,30.08,30.00,13,2,19,0.05
2013-7-4,79,71,62,69,65,61,100,84,63,30.13,30.04,8,1,10,0.00
2013-7-5,82,74,67,72,68,62,99,84,54,30.09,30.01,8,1,12,0.02
2013-7-6,77,72,66,72,69,65,99,93,78,30.08,29.97,7,1,13,0.49
2013-7-7,78,69,65,71,67,62,99,94,78,30.04,29.97,9,3,19,0.09
2013-7-8,82,73,66,76,70,66,100,91,74,30.04,29.94,13,3,23,0.53
2013-7-9,86,76,72,78,74,71,99,94,74,29.97,29.87,18,3,35,0.35
2013-7-10,80,74,64,76,70,60,99,86,60,29.93,29.78,18,6,26,1.27
2013-7-11,77,69,61,65,59,55,91,73,49,30.04,29.92,13,4,16,0.00
2013-7-12,78,68,57,64,60,57,98,78,52,30.13,30.03,10,2,19,0.00
2013-7-13,82,71,60,69,65,58,95,80,61,30.17,30.10,11,3,14,0.00
2013-7-14,85,76,66,74,70,65,98,82,63,30.21,30.16,10,2,14,0.01
2013-7-15,90,80,69,76,73,68,99,80,58,30.26,30.18,10,2,13,0.00
2013-7-16,90,81,71,78,74,70,97,78,57,30.29,30.21,11,3,13,0.00
2013-7-17,90,81,73,78,74,70,94,79,60,30.28,30.13,13,4,16,0.00
2013-7-18,76,73,72,74,72,71,98,97,92,30.15,30.10,2,0,6,0.00
2013-8-2,76,68,65,69,66,64,98,93,81,29.92,29.84,12,4,18,0.10
2013-8-3,77,70,62,66,61,55,99,78,47,30.03,29.92,12,4,18,0.00
2013-8-4,73,64,52,58,55,51,97,75,49,30.16,30.03,15,4,19,0.00
2013-8-5,74,64,50,63,57,50,99,79,48,30.11,29.94,8,1,9,0.00
2013-8-6,78,69,62,70,65,60,97,88,73,29.96,29.87,10,2,16,0.08
2013-8-7,81,72,64,75,69,64,100,92,79,29.90,29.81,13,1,20,0.00
2013-8-8,71,68,66,68,66,64,97,93,87,29.94,29.88,13,4,15,0.00
2013-8-9,80,74,66,66,63,59,92,70,53,30.00,29.94,11,3,15,0.00
2013-8-10,78,69,63,68,64,62,96,86,68,30.10,30.00,9,2,15,0.04
2013-8-11,79,68,56,65,61,56,99,79,52,30.11,30.02,12,2,16,0.00
2013-8-12,82,71,60,70,65,59,98,82,59,30.06,29.82,19,2,26,0.01
2013-8-13,68,62,54,64,55,48,98,78,51,30.07,29.83,19,7,21,0.01
2013-8-14,70,58,46,54,49,44,95,76,48,30.18,30.07,12,3,18,0.00
2013-8-15,74,60,46,57,51,45,99,75,44,30.19,30.09,11,1,13,0.00
2013-8-16,77,64,50,58,54,49,99,74,44,30.19,30.12,9,1,11,0.00
2013-8-17,77,64,50,62,57,49,99,78,52,30.25,30.16,11,2,16,0.00
2013-8-18,81,69,58,66,60,56,99,76,45,30.20,30.08,9,1,13,0.00
2013-8-19,83,70,57,65,60,56,97,74,44,30.11,30.01,12,2,15,0.00
2013-8-20,84,71,58,68,64,58,100,79,52,30.14,30.05,15,2,16,0.00
2013-8-21,85,74,62,71,66,60,98,80,51,30.12,29.98,18,2,22,0.00
2013-8-22,80,72,66,72,68,66,98,90,74,30.03,29.93,19,4,31,0.39
2013-8-23,79,70,58,67,60,52,98,73,42,30.16,30.03,12,4,15,0.00
2013-8-24,80,68,55,65,58,53,98,72,45,30.29,30.16,12,2,19,0.00
2013-8-25,86,71,55,65,61,54,98,74,45,30.29,30.16,15,3,21,0.00
2013-8-26,87,76,64,71,67,61,93,75,55,30.18,29.97,15,5,22,0.00
2013-8-27,81,74,71,75,70,68,94,89,81,29.99,29.93,9,2,13,0.01
2013-8-28,81,76,72,73,71,70,94,87,77,29.96,29.88,13,5,14,0.00
2013-8-29,72,68,65,70,67,64,98,95,93,29.99,29.96,5,1,7,0.00
2013-8-30,89,82,78,72,71,70,80,68,54,29.78,29.71,14,3,20,0.00
2013-8-31,83,76,70,72,70,68,98,83,66,29.81,29.70,10,3,13,0.00
2013-9-1,77,71,68,71,69,67,98,93,79,29.78,29.74,8,2,11,0.00
2013-9-8,63,62,61,60,59,58,92,90,89,30.01,30.01,4,1,6,0.00
2013-9-9,89,72,58,72,64,56,93,78,53,30.03,29.86,14,2,19,0.00
2013-9-10,96,84,75,73,68,62,90,63,33,30.00,29.89,20,6,26,0.00
2013-9-11,94,81,70,72,69,65,97,70,39,30.02,29.88,24,6,33,0.10
2013-9-12,80,70,58,70,63,53,98,81,40,29.95,29.79,15,6,28,0.35
2013-9-13,60,54,46,54,46,42,91,76,54,30.14,29.95,22,7,25,0.00
2013-9-14,70,53,39,47,41,38,97,69,32,30.22,30.09,9,1,11,0.01
2013-9-15,68,54,42,57,48,40,98,82,51,30.14,30.01,11,2,14,0.24
2013-9-16,65,57,50,55,51,46,98,82,56,30.34,30.12,13,5,15,0.00
2013-9-17,69,55,42,52,47,40,95,76,46,30.39,30.20,11,2,15,0.00
2013-9-18,79,62,50,59,53,47,95,75,40,30.20,30.00,9,1,13,0.00
2013-9-19,78,66,59,68,62,57,96,88,69,30.03,29.97,14,2,19,0.06
2013-10-10,72,58,42,53,45,40,99,67,33,30.22,30.10,9,1,12,0.00
2013-10-11,75,58,44,57,50,43,98,77,41,30.15,30.03,7,1,10,0.00
2013-10-12,78,61,47,60,55,46,100,81,50,30.09,30.00,13,1,14,0.01
2013-10-13,67,60,48,61,48,40,94,68,39,30.35,30.08,14,6,19,0.00
2013-10-14,48,47,46,43,43,43,87,85,83,30.35,30.35,7,4,8,0.00
2013-10-20,61,53,39,45,42,36,89,65,44,29.96,29.88,18,7,22,0.00
2013-10-21,54,50,39,48,44,32,91,80,67,29.92,29.85,18,7,24,0.02
2013-10-22,48,38,30,35,30,25,94,74,42,30.00,29.92,18,6,24,0.00
2013-10-23,44,37,31,36,33,29,98,86,64,30.02,29.86,16,5,23,0.00
2013-10-24,43,37,33,35,32,31,92,85,65,30.26,30.00,16,6,23,0.00
2013-10-25,46,38,31,36,31,27,96,77,49,30.40,30.18,21,5,24,0.01
2013-10-26,50,42,37,36,30,28,70,63,59,30.18,29.86,28,11,33,0.00
2013-10-31,63,60,58,62,59,57,99,97,93,29.87,29.20,23,8,31,1.46
2013-11-1,58,49,46,56,44,41,95,84,75,29.70,29.23,29,10,44,0.04
2013-11-2,47,45,44,46,43,42,96,94,89,29.86,29.69,12,7,21,0.07
2013-11-6,55,47,43,53,44,40,95,91,88,30.05,29.88,24,14,33,0.02
2013-11-7,46,40,34,40,33,28,91,75,52,30.21,30.03,24,9,32,0.00
2013-11-8,45,38,33,34,31,29,96,79,54,30.35,30.20,14,3,18,0.02
2013-11-9,58,49,38,44,37,32,80,65,54,30.20,29.88,28,11,38,0.00
2013-11-10,48,42,32,38,32,28,89,68,57,30.32,29.99,28,10,33,0.00
2013-11-11,48,38,27,39,33,22,97,83,63,30.38,30.08,20,8,25,0.12
2013-11-12,34,28,22,25,21,19,86,77,62,30.62,30.38,20,8,25,0.00
2013-11-13,37,29,21,22,19,17,88,70,47,30.61,30.28,22,7,26,0.00
2013-11-14,51,39,30,27,24,20,73,56,33,30.28,30.06,21,8,29,0.00
2013-11-15,50,43,37,32,29,24,73,57,47,30.10,30.04,14,4,19,0.00
2013-11-16,57,48,36,54,44,31,94,88,74,30.10,29.81,19,6,26,0.03
2013-11-17,64,59,56,60,57,54,97,93,87,29.81,29.35,23,10,34,0.32
2013-11-23,30,24,17,26,15,8,88,68,57,30.61,30.36,28,15,32,0.00
2013-11-24,24,19,15,18,13,9,85,76,68,30.70,30.51,14,5,21,0.00
2013-11-25,31,25,17,24,17,12,83,74,57,30.51,30.18,21,7,25,0.00
2013-11-26,36,31,28,29,26,23,89,82,72,30.19,29.98,18,6,26,0.00
2013-11-27,30,25,19,23,15,12,82,67,49,30.27,29.98,24,11,31,0.00
2013-11-28,28,24,18,21,17,13,89,75,59,30.48,30.27,14,2,19,0.00
2013-11-29,34,28,22,24,20,18,88,74,54,30.69,30.48,8,1,10,0.00
2013-11-30,48,34,25,32,26,20,86,73,52,30.58,30.15,14,3,18,0.00
2013-12-1,44,35,28,36,30,24,90,82,71,30.15,30.02,11,2,13,0.00
2013-12-2,39,32,27,32,29,26,98,88,73,30.03,29.90,10,2,14,0.00
2013-12-3,43,36,32,41,35,28,97,94,82,29.92,29.84,10,2,14,0.02
2013-12-4,58,47,37,56,46,36,98,96,92,29.90,29.66,13,4,16,0.02
2013-12-5,58,39,29,56,34,23,94,82,74,30.20,29.65,28,10,34,0.01
2013-12-6,29,27,23,23,21,16,80,77,73,30.47,30.16,15,8,19,0.00
2013-12-7,25,21,14,17,14,10,87,74,60,30.67,30.46,15,6,19,0.00
2013-12-8,25,20,14,24,17,10,96,87,78,30.63,30.03,11,4,16,0.00
2013-12-9,28,24,17,27,20,10,97,85,74,30.21,29.97,25,10,34,0.00
2013-12-10,23,16,7,14,8,2,84,71,54,30.31,30.06,29,10,38,0.00
2013-12-11,24,17,8,20,12,4,91,80,72,30.53,30.31,19,7,23,0.00
2013-12-12,19,12,2,12,4,-3,86,72,54,30.54,30.30,23,7,31,0.00
2013-12-13,30,22,13,22,15,7,86,75,67,30.31,30.22,13,3,16,0.00
2013-12-14,26,22,20,24,20,18,95,93,84,30.26,29.86,15,7,20,0.00
2013-12-15,24,18,10,21,14,7,93,86,79,30.13,29.90,22,9,29,0.00
2013-12-16,18,13,2,14,9,0,92,85,75,30.25,30.06,9,2,13,0.00
2013-12-17,25,21,16,23,19,14,94,92,88,30.09,29.99,19,7,28,0.00
2013-12-18,27,21,18,22,16,14,92,81,69,30.24,29.97,19,7,22,0.00
2013-12-19,43,37,27,36,31,19,90,79,65,30.03,29.91,18,4,19,0.08
2013-12-20,52,44,37,52,44,34,100,97,89,29.91,29.73,11,4,15,0.25
2013-12-21,52,37,33,52,36,32,100,98,96,29.85,29.59,19,6,24,0.36
2013-12-22,39,35,32,37,34,31,99,95,89,30.03,29.51,27,8,35,0.08
2013-12-23,33,27,14,31,22,8,93,83,70,30.40,30.03,21,10,26,0.00
2013-12-24,19,13,7,13,8,3,91,83,75,30.60,30.40,19,6,24,0.00
2013-12-25,25,21,12,23,18,9,92,87,82,30.56,30.17,13,5,19,0.00
2013-12-26,25,25,25,24,23,23,94,93,91,30.17,30.13,9,5,13,0.00